createdAt,value
2022-10-09T00:00:48.061Z,100.00
2022-10-09T00:03:17.329Z,100.00
2022-10-09T00:05:45.444Z,100.00
2022-10-09T00:08:11.965Z,100.00
2022-10-09T00:10:43.471Z,100.00
2022-10-09T00:13:11.625Z,100.00
2022-10-09T00:15:39.699Z,100.00
2022-10-09T00:18:07.245Z,100.00
2022-10-09T00:20:40.892Z,100.00
2022-10-09T00:23:07.191Z,100.00
2022-10-09T00:25:34.395Z,100.00
2022-10-09T00:28:00.941Z,100.00
2022-10-09T00:30:27.467Z,100.00
2022-10-09T00:32:54.527Z,100.00
2022-10-09T00:35:21.528Z,100.00
2022-10-09T00:37:48.641Z,100.00
2022-10-09T00:40:16.145Z,100.00
2022-10-09T00:42:45.430Z,100.00
2022-10-09T00:45:20.576Z,100.00
2022-10-09T00:47:50.719Z,100.00
2022-10-09T00:50:29.138Z,100.00
2022-10-09T00:52:59.499Z,100.00
2022-10-09T00:55:27.894Z,100.00
2022-10-09T00:57:55.489Z,100.00
2022-10-09T01:00:22.475Z,100.00
2022-10-09T01:02:49.194Z,100.00
2022-10-09T01:05:16.216Z,100.00
2022-10-09T01:07:49.619Z,100.00
2022-10-09T01:10:23.618Z,100.00
2022-10-09T01:13:11.762Z,100.00
2022-10-09T01:15:44.664Z,100.00
2022-10-09T01:18:21.635Z,100.00
2022-10-09T01:21:14.184Z,100.00
2022-10-09T01:24:02.106Z,100.00
2022-10-09T01:26:35.503Z,100.00
2022-10-09T01:29:06.712Z,100.00
2022-10-09T01:31:37.530Z,100.00
2022-10-09T01:34:04.053Z,100.00
2022-10-09T01:36:31.051Z,100.00
2022-10-09T01:39:01.779Z,100.00
2022-10-09T01:41:28.443Z,100.00
2022-10-09T01:43:54.898Z,100.00
2022-10-09T01:46:32.127Z,100.00
2022-10-09T01:49:23.792Z,100.00
2022-10-09T01:51:57.491Z,100.00
2022-10-09T01:54:36.736Z,100.00
2022-10-09T01:57:05.527Z,100.00
2022-10-09T01:59:34.530Z,100.00
2022-10-09T02:02:01.165Z,100.00
2022-10-09T02:04:30.121Z,100.00
2022-10-09T02:06:56.982Z,100.00
2022-10-09T02:09:24.107Z,100.00
2022-10-09T02:11:53.577Z,100.00
2022-10-09T02:14:20.300Z,100.00
2022-10-09T02:16:48.411Z,100.00
2022-10-09T02:19:28.559Z,100.00
2022-10-09T02:22:08.346Z,100.00
2022-10-09T02:24:37.675Z,100.00
2022-10-09T02:27:04.575Z,100.00
2022-10-09T02:29:31.025Z,100.00
2022-10-09T02:31:57.510Z,100.00
2022-10-09T02:34:24.006Z,100.00
2022-10-09T02:36:50.643Z,100.00
2022-10-09T02:39:17.443Z,100.00
2022-10-09T02:41:43.894Z,100.00
2022-10-09T02:44:10.358Z,100.00
2022-10-09T02:46:38.318Z,100.00
2022-10-09T02:49:05.543Z,100.00
2022-10-09T02:51:31.991Z,100.00
2022-10-09T02:53:59.650Z,100.00
2022-10-09T02:56:26.497Z,100.00
2022-10-09T02:58:52.947Z,100.00
2022-10-09T03:01:19.549Z,100.00
2022-10-09T03:03:46.516Z,100.00
2022-10-09T03:06:14.662Z,100.00
2022-10-09T03:08:43.581Z,100.00
2022-10-09T03:11:10.770Z,100.00
2022-10-09T03:13:39.472Z,100.00
2022-10-09T03:16:07.109Z,100.00
2022-10-09T03:18:34.018Z,100.00
2022-10-09T03:21:00.493Z,100.00
2022-10-09T03:23:27.205Z,100.00
2022-10-09T03:25:57.757Z,100.00
2022-10-09T03:28:24.998Z,100.00
2022-10-09T03:30:52.095Z,100.00
2022-10-09T03:33:18.685Z,100.00
2022-10-09T03:35:46.189Z,100.00
2022-10-09T03:38:13.262Z,100.00
2022-10-09T03:40:40.023Z,100.00
2022-10-09T03:43:06.530Z,100.00
2022-10-09T03:45:33.015Z,100.00
2022-10-09T03:47:59.491Z,100.00
2022-10-09T03:50:25.965Z,100.00
2022-10-09T03:52:52.434Z,100.00
2022-10-09T03:55:18.871Z,100.00
2022-10-09T03:57:45.343Z,100.00
2022-10-09T04:00:12.378Z,100.00
2022-10-09T04:02:38.908Z,100.00
2022-10-09T04:05:06.056Z,100.00
2022-10-09T04:07:32.704Z,100.00
2022-10-09T04:09:59.163Z,100.00
2022-10-09T04:12:25.625Z,100.00
2022-10-09T04:14:52.123Z,100.00
2022-10-09T04:17:18.630Z,100.00
2022-10-09T04:19:45.075Z,100.00
2022-10-09T04:22:11.541Z,100.00
2022-10-09T04:24:38.007Z,100.00
2022-10-09T04:27:04.465Z,100.00
2022-10-09T04:29:30.908Z,100.00
2022-10-09T04:31:57.406Z,100.00
2022-10-09T04:34:23.943Z,100.00
2022-10-09T04:36:50.428Z,100.00
2022-10-09T04:39:16.881Z,100.00
2022-10-09T04:41:43.346Z,100.00
2022-10-09T04:44:09.965Z,100.00
2022-10-09T04:46:37.396Z,100.00
2022-10-09T04:49:03.855Z,100.00
2022-10-09T04:51:30.319Z,100.00
2022-10-09T04:54:00.421Z,100.00
2022-10-09T04:56:27.288Z,100.00
2022-10-09T04:58:53.735Z,100.00
2022-10-09T05:01:22.810Z,100.00
2022-10-09T05:03:49.825Z,100.00
2022-10-09T05:06:16.648Z,100.00
2022-10-09T05:08:43.365Z,100.00
2022-10-09T05:11:15.282Z,100.00
2022-10-09T05:13:45.044Z,100.00
2022-10-09T05:16:14.577Z,100.00
2022-10-09T05:18:43.055Z,100.00
2022-10-09T05:21:10.026Z,100.00
2022-10-09T05:23:36.490Z,100.00
2022-10-09T05:26:05.912Z,100.00
2022-10-09T05:28:32.980Z,100.00
2022-10-09T05:30:59.629Z,100.00
2022-10-09T05:33:26.168Z,100.00
2022-10-09T05:35:53.435Z,100.00
2022-10-09T05:38:20.456Z,100.00
2022-10-09T05:41:06.679Z,100.00
2022-10-09T05:43:35.428Z,100.00
2022-10-09T05:46:10.319Z,100.00
2022-10-09T05:48:37.849Z,100.00
2022-10-09T05:51:14.038Z,100.00
2022-10-09T05:53:42.196Z,100.00
2022-10-09T05:56:23.045Z,100.00
2022-10-09T05:58:56.750Z,100.00
2022-10-09T06:01:24.361Z,100.00
2022-10-09T06:03:55.664Z,100.00
2022-10-09T06:06:23.679Z,100.00
2022-10-09T06:08:50.155Z,100.00
2022-10-09T06:11:20.506Z,100.00
2022-10-09T06:13:47.277Z,100.00
2022-10-09T06:16:15.408Z,100.00
2022-10-09T06:18:48.094Z,100.00
2022-10-09T06:21:16.110Z,100.00
2022-10-09T06:23:42.671Z,100.00
2022-10-09T06:26:13.476Z,100.00
2022-10-09T06:28:40.520Z,100.00
2022-10-09T06:31:16.049Z,100.00
2022-10-09T06:33:44.287Z,100.00
2022-10-09T06:36:22.041Z,100.00
2022-10-09T06:38:48.711Z,100.00
2022-10-09T06:41:18.268Z,100.00
2022-10-09T06:43:52.942Z,100.00
2022-10-09T06:46:20.668Z,100.00
2022-10-09T06:48:48.682Z,100.00
2022-10-09T06:51:18.490Z,100.00
2022-10-09T06:53:47.799Z,100.00
2022-10-09T06:56:15.278Z,100.00
2022-10-09T06:58:43.220Z,100.00
2022-10-09T07:01:16.706Z,100.00
2022-10-09T07:03:45.547Z,100.00
2022-10-09T07:06:18.950Z,100.00
2022-10-09T07:08:48.389Z,100.00
2022-10-09T07:11:18.812Z,100.00
2022-10-09T07:13:47.129Z,100.00
2022-10-09T07:16:13.759Z,100.00
2022-10-09T07:18:40.384Z,100.00
2022-10-09T07:21:08.615Z,100.00
2022-10-09T07:23:35.843Z,100.00
2022-10-09T07:26:08.026Z,100.00
2022-10-09T07:28:34.552Z,100.00
2022-10-09T07:31:05.523Z,100.00
2022-10-09T07:33:32.197Z,100.00
2022-10-09T07:36:01.036Z,100.00
2022-10-09T07:38:28.073Z,100.00
2022-10-09T07:40:55.151Z,100.00
2022-10-09T07:43:22.624Z,100.00
2022-10-09T07:45:49.144Z,100.00
2022-10-09T07:48:16.127Z,100.00
2022-10-09T07:50:42.683Z,100.00
2022-10-09T07:53:09.772Z,100.00
2022-10-09T07:55:36.478Z,100.00
2022-10-09T07:58:03.462Z,100.00
2022-10-09T08:00:29.915Z,100.00
2022-10-09T08:02:56.414Z,100.00
2022-10-09T08:05:23.151Z,100.00
2022-10-09T08:07:49.734Z,100.00
2022-10-09T08:10:16.308Z,100.00
2022-10-09T08:12:43.112Z,100.00
2022-10-09T08:15:09.628Z,100.00
2022-10-09T08:17:36.652Z,100.00
2022-10-09T08:20:03.636Z,100.00
2022-10-09T08:22:30.150Z,100.00
2022-10-09T08:24:56.986Z,100.00
2022-10-09T08:27:23.460Z,100.00
2022-10-09T08:29:49.953Z,100.00
2022-10-09T08:32:16.407Z,100.00
2022-10-09T08:34:44.779Z,100.00
2022-10-09T08:37:11.787Z,100.00
2022-10-09T08:39:39.583Z,100.00
2022-10-09T08:42:07.202Z,100.00
2022-10-09T08:44:38.210Z,100.00
2022-10-09T08:47:42.547Z,100.00
2022-10-09T08:50:22.870Z,100.00
2022-10-09T08:53:11.275Z,100.00
2022-10-09T08:55:58.634Z,100.00
2022-10-09T08:58:31.106Z,100.00
2022-10-09T09:01:06.189Z,100.00
2022-10-09T09:04:20.171Z,100.00
2022-10-09T09:07:04.186Z,100.00
2022-10-09T09:09:51.973Z,100.00
2022-10-09T09:12:34.587Z,100.00
2022-10-09T09:15:30.007Z,100.00
2022-10-09T09:17:59.333Z,100.00
2022-10-09T09:20:27.554Z,100.00
2022-10-09T09:22:55.416Z,100.00
2022-10-09T09:25:26.498Z,100.00
2022-10-09T09:27:54.174Z,100.00
2022-10-09T09:30:27.988Z,100.00
2022-10-09T09:33:01.323Z,100.00
2022-10-09T09:35:29.858Z,100.00
2022-10-09T09:37:56.433Z,100.00
2022-10-09T09:40:36.037Z,100.00
2022-10-09T09:43:15.947Z,100.00
2022-10-09T09:45:43.799Z,100.00
2022-10-09T09:48:15.602Z,100.00
2022-10-09T09:50:50.653Z,100.00
2022-10-09T09:53:32.602Z,100.00
2022-10-09T09:55:59.074Z,100.00
2022-10-09T09:58:34.806Z,100.00
2022-10-09T10:01:03.069Z,99.91
2022-10-09T10:03:30.748Z,100.00
2022-10-09T10:05:57.238Z,100.00
2022-10-09T10:08:34.474Z,100.00
2022-10-09T10:11:03.330Z,100.00
2022-10-09T10:13:34.639Z,100.00
2022-10-09T10:16:01.700Z,100.00
2022-10-09T10:18:29.449Z,100.00
2022-10-09T10:20:57.600Z,100.00
2022-10-09T10:23:34.627Z,100.00
2022-10-09T10:26:05.591Z,100.00
2022-10-09T10:28:37.636Z,100.00
2022-10-09T10:31:06.265Z,100.00
2022-10-09T10:33:33.769Z,100.00
2022-10-09T10:36:01.196Z,100.00
2022-10-09T10:38:40.671Z,100.00
2022-10-09T10:41:26.320Z,100.00
2022-10-09T10:44:02.346Z,100.00
2022-10-09T10:46:32.597Z,100.00
2022-10-09T10:48:59.899Z,100.00
2022-10-09T10:51:47.978Z,100.00
2022-10-09T10:54:20.314Z,99.34
2022-10-09T10:57:05.998Z,97.01
2022-10-09T11:00:05.306Z,93.87
2022-10-09T11:02:42.347Z,90.94
2022-10-09T11:05:16.762Z,88.90
2022-10-09T11:08:04.594Z,87.40
2022-10-09T11:10:43.630Z,86.14
2022-10-09T11:13:32.215Z,85.65
2022-10-09T11:16:35.540Z,84.48
2022-10-09T11:19:09.886Z,83.23
2022-10-09T11:21:45.152Z,81.91
2022-10-09T11:24:28.787Z,80.39
2022-10-09T11:27:03.678Z,79.86
2022-10-09T11:29:37.543Z,79.25
2022-10-09T11:32:27.192Z,79.72
2022-10-09T11:35:12.500Z,79.54
2022-10-09T11:37:41.800Z,80.43
2022-10-09T11:40:20.393Z,80.14
2022-10-09T11:42:53.000Z,79.27
2022-10-09T11:45:29.209Z,79.19
2022-10-09T11:48:14.288Z,79.01
2022-10-09T11:51:01.329Z,78.92
2022-10-09T11:53:28.711Z,79.15
2022-10-09T11:56:07.179Z,79.53
2022-10-09T11:58:34.554Z,79.75
2022-10-09T12:01:22.631Z,80.38
2022-10-09T12:04:00.740Z,79.88
2022-10-09T12:06:28.037Z,78.68
2022-10-09T12:09:04.867Z,78.05
2022-10-09T12:11:32.480Z,78.17
2022-10-09T12:14:01.043Z,77.86
2022-10-09T12:16:38.660Z,77.86
2022-10-09T12:19:14.173Z,78.12
2022-10-09T12:21:48.239Z,79.19
2022-10-09T12:24:25.818Z,80.18
2022-10-09T12:26:55.271Z,81.67
2022-10-09T12:29:27.846Z,82.00
2022-10-09T12:31:57.758Z,81.89
2022-10-09T12:34:26.780Z,81.82
2022-10-09T12:37:04.051Z,81.85
2022-10-09T12:39:33.939Z,81.20
2022-10-09T12:42:00.750Z,79.86
2022-10-09T12:44:40.103Z,76.97
2022-10-09T12:47:09.877Z,74.65
2022-10-09T12:49:36.698Z,74.77
2022-10-09T12:52:03.188Z,75.81
2022-10-09T12:54:30.866Z,76.05
2022-10-09T12:56:58.076Z,74.86
2022-10-09T12:59:25.820Z,72.46
2022-10-09T13:01:56.568Z,69.50
2022-10-09T13:04:36.688Z,66.97
2022-10-09T13:07:07.006Z,65.53
2022-10-09T13:09:40.095Z,66.77
2022-10-09T13:12:07.988Z,66.82
2022-10-09T13:14:41.263Z,66.64
2022-10-09T13:17:24.175Z,66.76
2022-10-09T13:19:53.177Z,67.73
2022-10-09T13:22:29.058Z,68.08
2022-10-09T13:24:58.329Z,67.67
2022-10-09T13:27:31.450Z,67.98
2022-10-09T13:30:01.059Z,67.66
2022-10-09T13:32:27.931Z,66.97
2022-10-09T13:34:55.141Z,67.20
2022-10-09T13:37:23.611Z,66.81
2022-10-09T13:39:54.010Z,67.94
2022-10-09T13:42:20.963Z,69.18
2022-10-09T13:44:47.468Z,70.69
2022-10-09T13:47:13.986Z,71.36
2022-10-09T13:49:40.705Z,71.85
2022-10-09T13:52:07.217Z,71.62
2022-10-09T13:54:33.685Z,70.93
2022-10-09T13:57:00.156Z,68.52
2022-10-09T13:59:28.605Z,67.00
2022-10-09T14:01:55.446Z,65.82
2022-10-09T14:04:21.995Z,65.01
2022-10-09T14:06:48.694Z,64.58
2022-10-09T14:09:15.419Z,65.02
2022-10-09T14:11:42.065Z,65.23
2022-10-09T14:14:08.625Z,65.42
2022-10-09T14:16:35.152Z,65.05
2022-10-09T14:19:03.534Z,65.41
2022-10-09T14:21:30.292Z,64.69
2022-10-09T14:24:01.414Z,64.55
2022-10-09T14:26:28.514Z,66.54
2022-10-09T14:28:57.902Z,66.24
2022-10-09T14:31:24.425Z,66.47
2022-10-09T14:34:02.156Z,65.83
2022-10-09T14:36:29.319Z,65.57
2022-10-09T14:38:57.033Z,65.40
2022-10-09T14:41:24.170Z,65.60
2022-10-09T14:43:57.474Z,65.48
2022-10-09T14:46:28.703Z,65.11
2022-10-09T14:49:00.402Z,64.43
2022-10-09T14:51:27.955Z,64.59
2022-10-09T14:54:00.790Z,64.88
2022-10-09T14:56:27.715Z,65.13
2022-10-09T14:58:54.395Z,64.79
2022-10-09T15:01:22.448Z,65.69
2022-10-09T15:03:49.408Z,65.21
2022-10-09T15:06:23.920Z,65.35
2022-10-09T15:08:55.753Z,65.06
2022-10-09T15:11:22.894Z,65.24
2022-10-09T15:13:49.471Z,66.53
2022-10-09T15:16:16.907Z,68.50
2022-10-09T15:18:43.762Z,69.77
2022-10-09T15:21:16.790Z,71.19
2022-10-09T15:23:43.328Z,71.62
2022-10-09T15:26:10.431Z,71.23
2022-10-09T15:28:38.049Z,71.95
2022-10-09T15:31:06.047Z,72.42
2022-10-09T15:33:33.195Z,72.59
2022-10-09T15:35:59.764Z,72.88
2022-10-09T15:38:26.405Z,73.35
2022-10-09T15:40:55.120Z,74.12
2022-10-09T15:43:23.440Z,74.46
2022-10-09T15:45:53.012Z,74.77
2022-10-09T15:48:24.010Z,75.22
2022-10-09T15:50:53.419Z,75.14
2022-10-09T15:53:22.388Z,75.83
2022-10-09T15:55:53.662Z,75.85
2022-10-09T15:58:20.583Z,76.78
2022-10-09T16:00:49.268Z,76.90
2022-10-09T16:03:17.358Z,76.93
2022-10-09T16:05:49.465Z,77.85
2022-10-09T16:08:17.529Z,78.70
2022-10-09T16:10:48.823Z,79.60
2022-10-09T16:13:16.471Z,79.80
2022-10-09T16:15:44.253Z,79.99
2022-10-09T16:18:11.019Z,79.48
2022-10-09T16:20:39.107Z,80.26
2022-10-09T16:23:06.448Z,80.99
2022-10-09T16:25:33.461Z,81.85
2022-10-09T16:28:00.122Z,82.43
2022-10-09T16:30:27.543Z,82.26
2022-10-09T16:32:54.107Z,83.05
2022-10-09T16:35:21.776Z,83.33
2022-10-09T16:37:48.364Z,84.02
2022-10-09T16:40:14.837Z,84.19
2022-10-09T16:42:42.345Z,84.55
2022-10-09T16:45:09.724Z,84.22
2022-10-09T16:47:37.740Z,85.19
2022-10-09T16:50:05.665Z,84.36
2022-10-09T16:52:32.642Z,85.23
2022-10-09T16:55:00.698Z,85.31
2022-10-09T16:57:27.768Z,85.87
2022-10-09T16:59:54.353Z,86.16
2022-10-09T17:02:20.866Z,85.87
2022-10-09T17:04:47.446Z,86.81
2022-10-09T17:07:13.992Z,87.10
2022-10-09T17:09:41.119Z,87.09
2022-10-09T17:12:09.709Z,86.84
2022-10-09T17:14:37.208Z,87.11
2022-10-09T17:17:10.929Z,86.92
2022-10-09T17:19:38.440Z,87.71
2022-10-09T17:22:10.601Z,87.84
2022-10-09T17:24:37.577Z,88.05
2022-10-09T17:27:08.876Z,88.79
2022-10-09T17:29:38.544Z,90.43
2022-10-09T17:32:07.132Z,90.21
2022-10-09T17:34:33.735Z,90.24
2022-10-09T17:37:00.498Z,90.07
2022-10-09T17:39:27.147Z,90.84
2022-10-09T17:41:53.912Z,91.95
2022-10-09T17:44:22.704Z,91.89
2022-10-09T17:46:54.032Z,92.10
2022-10-09T17:49:22.705Z,92.37
2022-10-09T17:51:52.394Z,92.52
2022-10-09T17:54:19.011Z,92.93
2022-10-09T17:56:45.475Z,92.92
2022-10-09T17:59:12.882Z,93.07
2022-10-09T18:01:39.897Z,93.21
2022-10-09T18:04:07.525Z,93.42
2022-10-09T18:06:46.213Z,93.35
2022-10-09T18:09:13.894Z,93.13
2022-10-09T18:11:40.745Z,93.37
2022-10-09T18:14:07.373Z,93.89
2022-10-09T18:16:36.854Z,94.97
2022-10-09T18:19:18.436Z,95.37
2022-10-09T18:21:46.734Z,95.45
2022-10-09T18:24:14.397Z,95.90
2022-10-09T18:26:41.550Z,96.68
2022-10-09T18:29:08.060Z,97.47
2022-10-09T18:31:35.027Z,97.40
2022-10-09T18:34:01.712Z,97.33
2022-10-09T18:36:34.207Z,97.80
2022-10-09T18:39:09.479Z,98.28
2022-10-09T18:41:36.853Z,98.40
2022-10-09T18:44:04.428Z,99.03
2022-10-09T18:46:36.913Z,99.25
2022-10-09T18:49:09.189Z,99.50
2022-10-09T18:51:37.955Z,99.15
2022-10-09T18:54:05.770Z,99.35
2022-10-09T18:56:33.498Z,99.38
2022-10-09T18:59:01.784Z,99.26
2022-10-09T19:01:28.892Z,99.28
2022-10-09T19:03:55.412Z,99.15
2022-10-09T19:06:23.083Z,99.52
2022-10-09T19:08:49.636Z,99.81
2022-10-09T19:11:16.201Z,100.00
2022-10-09T19:13:43.710Z,100.00
2022-10-09T19:16:10.557Z,100.00
2022-10-09T19:18:39.576Z,100.00
2022-10-09T19:21:06.281Z,100.00
2022-10-09T19:23:34.908Z,100.00
2022-10-09T19:26:04.302Z,100.00
2022-10-09T19:28:32.588Z,100.00
2022-10-09T19:31:02.428Z,100.00
2022-10-09T19:33:29.304Z,100.00
2022-10-09T19:35:56.410Z,100.00
2022-10-09T19:38:23.425Z,100.00
2022-10-09T19:40:50.727Z,100.00
2022-10-09T19:43:18.414Z,100.00
2022-10-09T19:45:45.113Z,100.00
2022-10-09T19:48:11.583Z,100.00
2022-10-09T19:50:44.828Z,100.00
2022-10-09T19:53:11.621Z,100.00
2022-10-09T19:55:38.153Z,100.00
2022-10-09T19:58:04.743Z,100.00
2022-10-09T20:00:31.195Z,100.00
2022-10-09T20:02:57.686Z,100.00
2022-10-09T20:05:24.238Z,100.00
2022-10-09T20:07:50.703Z,100.00
2022-10-09T20:10:17.200Z,100.00
2022-10-09T20:12:43.846Z,100.00
2022-10-09T20:15:10.369Z,100.00
2022-10-09T20:17:37.054Z,100.00
2022-10-09T20:20:06.994Z,100.00
2022-10-09T20:22:33.500Z,100.00
2022-10-09T20:25:00.132Z,100.00
2022-10-09T20:27:26.608Z,100.00
2022-10-09T20:29:53.919Z,100.00
2022-10-09T20:32:20.860Z,100.00
2022-10-09T20:34:48.341Z,100.00
2022-10-09T20:37:14.801Z,100.00
2022-10-09T20:39:41.244Z,100.00
2022-10-09T20:42:07.945Z,100.00
2022-10-09T20:44:34.467Z,100.00
2022-10-09T20:47:01.982Z,100.00
2022-10-09T20:49:28.677Z,100.00
2022-10-09T20:51:59.249Z,100.00
2022-10-09T20:54:27.520Z,100.00
2022-10-09T20:56:54.409Z,100.00
2022-10-09T20:59:21.342Z,100.00
2022-10-09T21:01:49.055Z,100.00
2022-10-09T21:04:21.792Z,100.00
2022-10-09T21:06:48.601Z,100.00
2022-10-09T21:09:15.050Z,100.00
2022-10-09T21:11:41.815Z,100.00
2022-10-09T21:14:10.438Z,100.00
2022-10-09T21:16:37.049Z,100.00
2022-10-09T21:19:04.861Z,100.00
2022-10-09T21:21:31.800Z,100.00
2022-10-09T21:23:59.497Z,100.00
2022-10-09T21:26:28.051Z,100.00
2022-10-09T21:28:59.243Z,100.00
2022-10-09T21:31:28.288Z,100.00
2022-10-09T21:33:55.293Z,100.00
2022-10-09T21:36:55.871Z,100.00
2022-10-09T21:39:27.427Z,100.00
2022-10-09T21:41:54.477Z,100.00
2022-10-09T21:44:21.064Z,100.00
2022-10-09T21:46:48.016Z,100.00
2022-10-09T21:49:23.084Z,100.00
2022-10-09T21:51:49.574Z,100.00
2022-10-09T21:54:16.510Z,100.00
2022-10-09T21:56:43.061Z,100.00
2022-10-09T21:59:09.584Z,100.00
2022-10-09T22:01:36.157Z,100.00
2022-10-09T22:04:02.700Z,100.00
2022-10-09T22:06:29.211Z,100.00
2022-10-09T22:08:56.069Z,100.00
2022-10-09T22:11:22.614Z,100.00
2022-10-09T22:13:49.887Z,100.00
2022-10-09T22:16:16.401Z,100.00
2022-10-09T22:18:43.077Z,100.00
2022-10-09T22:21:14.623Z,100.00
2022-10-09T22:23:41.182Z,100.00
2022-10-09T22:26:15.235Z,100.00
2022-10-09T22:28:41.770Z,100.00
2022-10-09T22:31:15.762Z,100.00
2022-10-09T22:33:42.974Z,100.00
2022-10-09T22:36:16.343Z,100.00
2022-10-09T22:38:43.871Z,100.00
2022-10-09T22:41:12.482Z,100.00
2022-10-09T22:43:40.723Z,100.00
2022-10-09T22:46:12.018Z,100.00
2022-10-09T22:48:38.829Z,100.00
2022-10-09T22:51:07.240Z,100.00
2022-10-09T22:53:34.458Z,100.00
2022-10-09T22:56:01.621Z,100.00
2022-10-09T22:58:28.144Z,100.00
2022-10-09T23:00:55.506Z,100.00
2022-10-09T23:03:21.960Z,100.00
2022-10-09T23:05:48.411Z,100.00
2022-10-09T23:08:15.079Z,99.84
2022-10-09T23:10:41.585Z,99.34
2022-10-09T23:13:08.050Z,99.07
2022-10-09T23:15:35.967Z,98.74
2022-10-09T23:18:06.285Z,98.03
2022-10-09T23:20:36.309Z,97.60
2022-10-09T23:23:02.851Z,97.13
2022-10-09T23:25:29.318Z,96.89
2022-10-09T23:27:55.779Z,96.92
2022-10-09T23:30:22.230Z,96.90
2022-10-09T23:32:52.021Z,96.56
2022-10-09T23:35:18.593Z,96.40
2022-10-09T23:37:45.046Z,96.29
2022-10-09T23:40:11.493Z,96.71
2022-10-09T23:42:37.959Z,96.40
2022-10-09T23:45:10.443Z,96.56
2022-10-09T23:47:37.100Z,96.73
2022-10-09T23:50:05.114Z,96.60
2022-10-09T23:52:31.604Z,96.28
2022-10-09T23:54:58.038Z,96.20
2022-10-09T23:57:24.529Z,96.42
2022-10-09T23:59:51.047Z,96.21
